首页
METAR-TAF:

METAR-TAF

机场 :

阿根廷港, 福克兰群岛

纬度: 51-49S, 经度: 058-27W, 海拔: 74米

当前天气观测

该预报发布于53分钟前的13:50 UTC
风速17节,风向西北
温度 11°C
湿度 66%
气压 1007 hPa
能见度10公里或以上
少量云层高于1000英尺
散云层高于25000英尺

METAR: EGYP 251350Z 32017KT 9999 FEW010 SCT250 11/05 Q1007 BLU NOSIG

时间: 11:43 (14:43 UTC)

预报

该预报发布于1小时和21分钟前的13:22 UTC
预报有效从25日的 15点(UTC)到 26日的 09点(UTC)
风速16节,风向西北,有时为26节阵风
能见度10公里或以上
少量云层高于1500英尺
成为
从 26日的 00点(UTC)到 26日的 03点(UTC)
风速13节,风向西北
多云层高于1000英尺
短暂存在
从 26日的 00点(UTC)到 26日的 09点(UTC)
能見度: 7000
几率 40% :
短暂存在
从 26日的 05点(UTC)到 26日的 09点(UTC)
能見度: 4000
散云层高于400英尺
雨, 毛毛雨

TAF: EGYP 251322Z 2515/2609 31016G26KT 9999 FEW015 BECMG 2600/2603 31013KT BKN010 TEMPO 2600/2609 7000 RA PROB40 TEMPO 2605/2609 4000 RADZ SCT004

超过4000个机场的气象观测和天气预报(METAR&TAF报告)。

可查询的气象台以黄色和红色小点在地图上表示。

将鼠标移到小点上方,可查看气象台名称。

然后点击查看天气观测和预报。

如需切换地图:点击带黑十字的绿色按钮放大地图;点击带横线的绿色按钮缩小地图;或者点击绿色箭头查看邻近地区的地图。


METAR-TAF: